sensor_id;sensor_type;location;lat;lon;timestamp;P1;durP1;ratioP1;P2;durP2;ratioP2
75766;SDS011;64378;55.596;13.014;2023-03-01T00:00:11;9.57;;;3.80;;
75766;SDS011;64378;55.596;13.014;2023-03-01T00:02:37;8.88;;;3.90;;
75766;SDS011;64378;55.596;13.014;2023-03-01T00:05:02;8.50;;;3.75;;
75766;SDS011;64378;55.596;13.014;2023-03-01T00:07:28;8.65;;;3.60;;
75766;SDS011;64378;55.596;13.014;2023-03-01T00:09:54;7.83;;;3.37;;
75766;SDS011;64378;55.596;13.014;2023-03-01T00:12:19;9.10;;;3.50;;
75766;SDS011;64378;55.596;13.014;2023-03-01T00:14:45;9.73;;;3.83;;
75766;SDS011;64378;55.596;13.014;2023-03-01T00:17:10;8.47;;;3.40;;
75766;SDS011;64378;55.596;13.014;2023-03-01T00:19:36;8.40;;;3.47;;
75766;SDS011;64378;55.596;13.014;2023-03-01T00:22:01;8.27;;;3.50;;
75766;SDS011;64378;55.596;13.014;2023-03-01T00:24:26;10.50;;;3.50;;
75766;SDS011;64378;55.596;13.014;2023-03-01T00:26:53;8.43;;;3.40;;
75766;SDS011;64378;55.596;13.014;2023-03-01T00:29:21;8.30;;;3.53;;
75766;SDS011;64378;55.596;13.014;2023-03-01T00:31:47;9.57;;;3.80;;
75766;SDS011;64378;55.596;13.014;2023-03-01T00:34:13;9.33;;;3.50;;
75766;SDS011;64378;55.596;13.014;2023-03-01T00:36:38;8.23;;;3.70;;
75766;SDS011;64378;55.596;13.014;2023-03-01T00:39:04;7.90;;;3.47;;
75766;SDS011;64378;55.596;13.014;2023-03-01T00:41:32;8.30;;;3.22;;
75766;SDS011;64378;55.596;13.014;2023-03-01T00:43:59;9.25;;;3.60;;
75766;SDS011;64378;55.596;13.014;2023-03-01T00:46:25;7.80;;;3.50;;
75766;SDS011;64378;55.596;13.014;2023-03-01T00:48:52;8.07;;;3.22;;
75766;SDS011;64378;55.596;13.014;2023-03-01T00:51:22;9.38;;;3.47;;
75766;SDS011;64378;55.596;13.014;2023-03-01T00:53:54;8.00;;;3.70;;
75766;SDS011;64378;55.596;13.014;2023-03-01T00:56:21;10.93;;;3.63;;
75766;SDS011;64378;55.596;13.014;2023-03-01T00:58:47;7.22;;;3.20;;
75766;SDS011;64378;55.596;13.014;2023-03-01T01:01:20;7.20;;;3.07;;
75766;SDS011;64378;55.596;13.014;2023-03-01T01:06:14;8.90;;;3.43;;
75766;SDS011;64378;55.596;13.014;2023-03-01T01:08:40;8.13;;;3.28;;
75766;SDS011;64378;55.596;13.014;2023-03-01T01:11:05;7.67;;;3.30;;
75766;SDS011;64378;55.596;13.014;2023-03-01T01:13:34;7.65;;;3.35;;
75766;SDS011;64378;55.596;13.014;2023-03-01T01:16:02;7.83;;;3.37;;
75766;SDS011;64378;55.596;13.014;2023-03-01T01:18:28;8.18;;;3.38;;
75766;SDS011;64378;55.596;13.014;2023-03-01T01:20:53;8.07;;;3.10;;
75766;SDS011;64378;55.596;13.014;2023-03-01T01:23:19;7.17;;;3.30;;
75766;SDS011;64378;55.596;13.014;2023-03-01T01:25:44;8.40;;;3.37;;
75766;SDS011;64378;55.596;13.014;2023-03-01T01:28:10;6.90;;;3.10;;
75766;SDS011;64378;55.596;13.014;2023-03-01T01:30:35;8.53;;;3.33;;
75766;SDS011;64378;55.596;13.014;2023-03-01T01:33:00;7.70;;;3.30;;
75766;SDS011;64378;55.596;13.014;2023-03-01T01:35:27;7.83;;;3.40;;
75766;SDS011;64378;55.596;13.014;2023-03-01T01:37:52;8.00;;;3.30;;
75766;SDS011;64378;55.596;13.014;2023-03-01T01:40:17;7.20;;;2.77;;
75766;SDS011;64378;55.596;13.014;2023-03-01T01:42:43;7.65;;;3.38;;
75766;SDS011;64378;55.596;13.014;2023-03-01T01:45:25;8.83;;;3.53;;
75766;SDS011;64378;55.596;13.014;2023-03-01T01:47:54;8.17;;;3.40;;
75766;SDS011;64378;55.596;13.014;2023-03-01T01:50:22;8.10;;;3.35;;
75766;SDS011;64378;55.596;13.014;2023-03-01T01:52:48;7.87;;;3.47;;
75766;SDS011;64378;55.596;13.014;2023-03-01T01:55:26;14.85;;;3.50;;
75766;SDS011;64378;55.596;13.014;2023-03-01T01:58:00;9.77;;;3.53;;
75766;SDS011;64378;55.596;13.014;2023-03-01T02:00:29;7.80;;;3.47;;
75766;SDS011;64378;55.596;13.014;2023-03-01T02:03:07;7.85;;;3.40;;
75766;SDS011;64378;55.596;13.014;2023-03-01T02:08:13;8.05;;;3.88;;
75766;SDS011;64378;55.596;13.014;2023-03-01T02:10:41;7.90;;;3.57;;
75766;SDS011;64378;55.596;13.014;2023-03-01T02:13:07;8.32;;;3.47;;
75766;SDS011;64378;55.596;13.014;2023-03-01T02:15:33;8.13;;;3.35;;
75766;SDS011;64378;55.596;13.014;2023-03-01T02:18:01;8.55;;;3.70;;
75766;SDS011;64378;55.596;13.014;2023-03-01T02:23:11;8.23;;;3.77;;
75766;SDS011;64378;55.596;13.014;2023-03-01T02:25:43;8.73;;;4.03;;
75766;SDS011;64378;55.596;13.014;2023-03-01T02:30:41;9.00;;;4.40;;
75766;SDS011;64378;55.596;13.014;2023-03-01T02:33:28;8.15;;;3.70;;
75766;SDS011;64378;55.596;13.014;2023-03-01T02:35:57;9.27;;;3.53;;
75766;SDS011;64378;55.596;13.014;2023-03-01T02:38:25;9.27;;;3.97;;
75766;SDS011;64378;55.596;13.014;2023-03-01T02:40:51;8.40;;;3.53;;
75766;SDS011;64378;55.596;13.014;2023-03-01T02:43:19;8.82;;;3.72;;
75766;SDS011;64378;55.596;13.014;2023-03-01T02:45:49;7.10;;;3.40;;
75766;SDS011;64378;55.596;13.014;2023-03-01T02:48:16;8.07;;;3.80;;
75766;SDS011;64378;55.596;13.014;2023-03-01T02:50:45;7.85;;;3.63;;
75766;SDS011;64378;55.596;13.014;2023-03-01T02:53:41;8.13;;;4.30;;
75766;SDS011;64378;55.596;13.014;2023-03-01T02:56:18;7.77;;;3.70;;
75766;SDS011;64378;55.596;13.014;2023-03-01T02:58:43;8.15;;;3.75;;
75766;SDS011;64378;55.596;13.014;2023-03-01T03:01:16;7.53;;;3.65;;
75766;SDS011;64378;55.596;13.014;2023-03-01T03:03:43;9.75;;;3.90;;
75766;SDS011;64378;55.596;13.014;2023-03-01T03:06:09;8.63;;;3.55;;
75766;SDS011;64378;55.596;13.014;2023-03-01T03:08:34;7.73;;;3.60;;
75766;SDS011;64378;55.596;13.014;2023-03-01T03:11:00;8.18;;;3.83;;
75766;SDS011;64378;55.596;13.014;2023-03-01T03:13:26;8.87;;;3.50;;
75766;SDS011;64378;55.596;13.014;2023-03-01T03:15:53;13.05;;;3.67;;
75766;SDS011;64378;55.596;13.014;2023-03-01T03:18:20;8.75;;;3.78;;
75766;SDS011;64378;55.596;13.014;2023-03-01T03:20:46;8.97;;;3.70;;
75766;SDS011;64378;55.596;13.014;2023-03-01T03:23:11;8.00;;;3.75;;
75766;SDS011;64378;55.596;13.014;2023-03-01T03:25:37;7.63;;;3.40;;
75766;SDS011;64378;55.596;13.014;2023-03-01T03:28:03;9.07;;;3.70;;
75766;SDS011;64378;55.596;13.014;2023-03-01T03:30:34;8.60;;;3.83;;
75766;SDS011;64378;55.596;13.014;2023-03-01T03:33:03;8.63;;;3.70;;
75766;SDS011;64378;55.596;13.014;2023-03-01T03:35:48;8.48;;;3.78;;
75766;SDS011;64378;55.596;13.014;2023-03-01T03:38:15;9.75;;;3.88;;
75766;SDS011;64378;55.596;13.014;2023-03-01T03:40:43;8.40;;;3.50;;
75766;SDS011;64378;55.596;13.014;2023-03-01T03:43:18;8.43;;;3.63;;
75766;SDS011;64378;55.596;13.014;2023-03-01T03:45:45;8.20;;;3.80;;
75766;SDS011;64378;55.596;13.014;2023-03-01T03:48:12;8.10;;;3.63;;
75766;SDS011;64378;55.596;13.014;2023-03-01T03:50:38;11.10;;;3.83;;
75766;SDS011;64378;55.596;13.014;2023-03-01T03:53:05;8.70;;;3.45;;
75766;SDS011;64378;55.596;13.014;2023-03-01T03:55:33;8.57;;;3.75;;
75766;SDS011;64378;55.596;13.014;2023-03-01T03:58:00;10.13;;;3.80;;
75766;SDS011;64378;55.596;13.014;2023-03-01T04:00:31;8.27;;;3.67;;
75766;SDS011;64378;55.596;13.014;2023-03-01T04:02:58;9.23;;;3.77;;
75766;SDS011;64378;55.596;13.014;2023-03-01T04:05:24;9.23;;;3.50;;
75766;SDS011;64378;55.596;13.014;2023-03-01T04:07:49;8.37;;;3.43;;
75766;SDS011;64378;55.596;13.014;2023-03-01T04:10:25;7.82;;;3.42;;
75766;SDS011;64378;55.596;13.014;2023-03-01T04:12:51;6.73;;;3.00;;
75766;SDS011;64378;55.596;13.014;2023-03-01T04:15:17;8.30;;;3.53;;
75766;SDS011;64378;55.596;13.014;2023-03-01T04:17:44;6.97;;;3.20;;
75766;SDS011;64378;55.596;13.014;2023-03-01T04:20:16;7.50;;;3.42;;
75766;SDS011;64378;55.596;13.014;2023-03-01T04:22:43;6.85;;;2.92;;
75766;SDS011;64378;55.596;13.014;2023-03-01T04:25:11;7.55;;;3.20;;
75766;SDS011;64378;55.596;13.014;2023-03-01T04:27:39;7.28;;;3.20;;
75766;SDS011;64378;55.596;13.014;2023-03-01T04:30:05;8.00;;;3.42;;
75766;SDS011;64378;55.596;13.014;2023-03-01T04:32:31;6.97;;;3.13;;
75766;SDS011;64378;55.596;13.014;2023-03-01T04:34:57;7.00;;;2.93;;
75766;SDS011;64378;55.596;13.014;2023-03-01T04:37:22;7.87;;;3.40;;
75766;SDS011;64378;55.596;13.014;2023-03-01T04:39:48;7.47;;;3.60;;
75766;SDS011;64378;55.596;13.014;2023-03-01T04:42:14;9.50;;;3.20;;
75766;SDS011;64378;55.596;13.014;2023-03-01T04:44:41;6.78;;;3.08;;
75766;SDS011;64378;55.596;13.014;2023-03-01T04:47:08;7.03;;;2.97;;
75766;SDS011;64378;55.596;13.014;2023-03-01T04:49:33;8.50;;;3.50;;
75766;SDS011;64378;55.596;13.014;2023-03-01T04:51:59;7.07;;;3.07;;
75766;SDS011;64378;55.596;13.014;2023-03-01T04:54:30;7.50;;;3.43;;
75766;SDS011;64378;55.596;13.014;2023-03-01T04:56:57;7.50;;;3.60;;
75766;SDS011;64378;55.596;13.014;2023-03-01T04:59:22;8.77;;;3.22;;
75766;SDS011;64378;55.596;13.014;2023-03-01T05:01:49;7.20;;;3.30;;
75766;SDS011;64378;55.596;13.014;2023-03-01T05:04:15;7.27;;;3.03;;
75766;SDS011;64378;55.596;13.014;2023-03-01T05:06:41;9.25;;;3.28;;
75766;SDS011;64378;55.596;13.014;2023-03-01T05:09:06;6.90;;;3.40;;
75766;SDS011;64378;55.596;13.014;2023-03-01T05:11:31;7.20;;;3.40;;
75766;SDS011;64378;55.596;13.014;2023-03-01T05:14:01;6.90;;;3.05;;
75766;SDS011;64378;55.596;13.014;2023-03-01T05:16:27;11.77;;;3.67;;
75766;SDS011;64378;55.596;13.014;2023-03-01T05:18:52;7.40;;;3.20;;
75766;SDS011;64378;55.596;13.014;2023-03-01T05:21:20;7.20;;;3.10;;
75766;SDS011;64378;55.596;13.014;2023-03-01T05:23:46;6.97;;;3.00;;
75766;SDS011;64378;55.596;13.014;2023-03-01T05:26:12;7.20;;;3.53;;
75766;SDS011;64378;55.596;13.014;2023-03-01T05:28:38;7.47;;;3.20;;
75766;SDS011;64378;55.596;13.014;2023-03-01T05:31:05;7.70;;;3.30;;
75766;SDS011;64378;55.596;13.014;2023-03-01T05:33:35;7.80;;;3.30;;
75766;SDS011;64378;55.596;13.014;2023-03-01T05:36:01;7.93;;;3.58;;
75766;SDS011;64378;55.596;13.014;2023-03-01T05:38:27;7.53;;;3.43;;
75766;SDS011;64378;55.596;13.014;2023-03-01T05:40:52;7.78;;;3.40;;
75766;SDS011;64378;55.596;13.014;2023-03-01T05:43:18;6.93;;;3.07;;
75766;SDS011;64378;55.596;13.014;2023-03-01T05:45:44;8.87;;;3.17;;
75766;SDS011;64378;55.596;13.014;2023-03-01T05:48:10;6.90;;;3.28;;
75766;SDS011;64378;55.596;13.014;2023-03-01T05:50:38;7.35;;;3.40;;
75766;SDS011;64378;55.596;13.014;2023-03-01T05:53:07;6.43;;;2.80;;
75766;SDS011;64378;55.596;13.014;2023-03-01T05:55:43;7.22;;;3.13;;
75766;SDS011;64378;55.596;13.014;2023-03-01T05:58:12;10.30;;;3.28;;
75766;SDS011;64378;55.596;13.014;2023-03-01T06:00:40;6.93;;;3.50;;
75766;SDS011;64378;55.596;13.014;2023-03-01T06:03:06;7.70;;;3.10;;
75766;SDS011;64378;55.596;13.014;2023-03-01T06:05:32;7.50;;;3.20;;
75766;SDS011;64378;55.596;13.014;2023-03-01T06:08:00;8.18;;;3.55;;
75766;SDS011;64378;55.596;13.014;2023-03-01T06:10:26;6.90;;;3.20;;
75766;SDS011;64378;55.596;13.014;2023-03-01T06:12:52;8.55;;;3.13;;
75766;SDS011;64378;55.596;13.014;2023-03-01T06:15:18;6.80;;;3.30;;
75766;SDS011;64378;55.596;13.014;2023-03-01T06:17:44;9.35;;;3.40;;
75766;SDS011;64378;55.596;13.014;2023-03-01T06:22:38;6.75;;;2.92;;
75766;SDS011;64378;55.596;13.014;2023-03-01T06:25:04;8.83;;;3.33;;
75766;SDS011;64378;55.596;13.014;2023-03-01T06:27:30;8.20;;;3.30;;
75766;SDS011;64378;55.596;13.014;2023-03-01T06:29:56;8.35;;;3.22;;
75766;SDS011;64378;55.596;13.014;2023-03-01T06:32:21;7.78;;;3.55;;
75766;SDS011;64378;55.596;13.014;2023-03-01T06:34:46;7.73;;;3.50;;
75766;SDS011;64378;55.596;13.014;2023-03-01T06:37:12;7.57;;;3.27;;
75766;SDS011;64378;55.596;13.014;2023-03-01T06:39:37;8.70;;;3.27;;
75766;SDS011;64378;55.596;13.014;2023-03-01T06:42:03;9.93;;;3.22;;
75766;SDS011;64378;55.596;13.014;2023-03-01T06:44:29;7.97;;;3.10;;
75766;SDS011;64378;55.596;13.014;2023-03-01T06:46:54;7.37;;;3.20;;
75766;SDS011;64378;55.596;13.014;2023-03-01T06:49:20;10.20;;;3.00;;
75766;SDS011;64378;55.596;13.014;2023-03-01T06:51:46;7.45;;;3.05;;
75766;SDS011;64378;55.596;13.014;2023-03-01T06:54:11;7.83;;;3.07;;
75766;SDS011;64378;55.596;13.014;2023-03-01T06:56:37;9.60;;;3.03;;
75766;SDS011;64378;55.596;13.014;2023-03-01T06:59:03;7.43;;;3.13;;
75766;SDS011;64378;55.596;13.014;2023-03-01T07:01:29;8.57;;;3.03;;
75766;SDS011;64378;55.596;13.014;2023-03-01T07:03:55;7.72;;;3.10;;
75766;SDS011;64378;55.596;13.014;2023-03-01T07:06:21;9.77;;;3.10;;
75766;SDS011;64378;55.596;13.014;2023-03-01T07:08:46;9.07;;;2.67;;
75766;SDS011;64378;55.596;13.014;2023-03-01T07:11:12;6.85;;;2.70;;
75766;SDS011;64378;55.596;13.014;2023-03-01T07:13:37;6.37;;;2.27;;
75766;SDS011;64378;55.596;13.014;2023-03-01T07:16:03;5.97;;;2.23;;
75766;SDS011;64378;55.596;13.014;2023-03-01T07:18:29;7.45;;;2.08;;
75766;SDS011;64378;55.596;13.014;2023-03-01T07:20:54;6.77;;;2.23;;
75766;SDS011;64378;55.596;13.014;2023-03-01T07:23:20;7.57;;;2.17;;
75766;SDS011;64378;55.596;13.014;2023-03-01T07:25:51;5.40;;;2.10;;
75766;SDS011;64378;55.596;13.014;2023-03-01T07:28:17;11.13;;;2.28;;
75766;SDS011;64378;55.596;13.014;2023-03-01T07:30:43;6.50;;;2.17;;
75766;SDS011;64378;55.596;13.014;2023-03-01T07:33:09;6.93;;;2.37;;
75766;SDS011;64378;55.596;13.014;2023-03-01T07:35:35;5.80;;;2.35;;
75766;SDS011;64378;55.596;13.014;2023-03-01T07:38:00;6.20;;;2.22;;
75766;SDS011;64378;55.596;13.014;2023-03-01T07:40:26;6.23;;;2.20;;
75766;SDS011;64378;55.596;13.014;2023-03-01T07:42:55;7.00;;;2.20;;
75766;SDS011;64378;55.596;13.014;2023-03-01T07:45:21;7.30;;;2.35;;
75766;SDS011;64378;55.596;13.014;2023-03-01T07:47:47;6.83;;;2.57;;
75766;SDS011;64378;55.596;13.014;2023-03-01T07:50:12;7.23;;;2.43;;
75766;SDS011;64378;55.596;13.014;2023-03-01T07:52:38;6.13;;;2.30;;
75766;SDS011;64378;55.596;13.014;2023-03-01T07:55:04;7.20;;;2.50;;
75766;SDS011;64378;55.596;13.014;2023-03-01T07:57:29;7.43;;;2.60;;
75766;SDS011;64378;55.596;13.014;2023-03-01T07:59:55;6.43;;;2.23;;
75766;SDS011;64378;55.596;13.014;2023-03-01T08:02:20;7.10;;;2.57;;
75766;SDS011;64378;55.596;13.014;2023-03-01T08:04:46;6.53;;;2.40;;
75766;SDS011;64378;55.596;13.014;2023-03-01T08:07:11;5.67;;;2.30;;
75766;SDS011;64378;55.596;13.014;2023-03-01T08:09:36;6.47;;;2.03;;
75766;SDS011;64378;55.596;13.014;2023-03-01T08:12:02;6.05;;;2.35;;
75766;SDS011;64378;55.596;13.014;2023-03-01T08:14:29;5.57;;;2.00;;
75766;SDS011;64378;55.596;13.014;2023-03-01T08:16:56;5.53;;;2.00;;
75766;SDS011;64378;55.596;13.014;2023-03-01T08:19:21;5.35;;;2.00;;
75766;SDS011;64378;55.596;13.014;2023-03-01T08:21:47;6.30;;;2.30;;
75766;SDS011;64378;55.596;13.014;2023-03-01T08:24:12;5.53;;;2.00;;
75766;SDS011;64378;55.596;13.014;2023-03-01T08:26:37;5.40;;;1.87;;
75766;SDS011;64378;55.596;13.014;2023-03-01T08:29:03;6.57;;;2.10;;
75766;SDS011;64378;55.596;13.014;2023-03-01T08:31:35;5.33;;;2.00;;
75766;SDS011;64378;55.596;13.014;2023-03-01T08:34:04;5.55;;;2.20;;
75766;SDS011;64378;55.596;13.014;2023-03-01T08:36:33;5.15;;;1.73;;
75766;SDS011;64378;55.596;13.014;2023-03-01T08:39:01;5.20;;;1.77;;
75766;SDS011;64378;55.596;13.014;2023-03-01T08:41:27;5.40;;;1.70;;
75766;SDS011;64378;55.596;13.014;2023-03-01T08:43:53;5.67;;;2.00;;
75766;SDS011;64378;55.596;13.014;2023-03-01T08:46:23;4.65;;;1.70;;
75766;SDS011;64378;55.596;13.014;2023-03-01T08:49:05;5.10;;;1.70;;
75766;SDS011;64378;55.596;13.014;2023-03-01T08:51:32;5.78;;;1.73;;
75766;SDS011;64378;55.596;13.014;2023-03-01T08:54:02;4.45;;;1.63;;
75766;SDS011;64378;55.596;13.014;2023-03-01T08:56:31;5.45;;;1.70;;
75766;SDS011;64378;55.596;13.014;2023-03-01T08:58:58;8.43;;;1.75;;
75766;SDS011;64378;55.596;13.014;2023-03-01T09:01:23;8.37;;;1.90;;
75766;SDS011;64378;55.596;13.014;2023-03-01T09:03:48;6.07;;;1.70;;
75766;SDS011;64378;55.596;13.014;2023-03-01T09:06:14;6.88;;;1.80;;
75766;SDS011;64378;55.596;13.014;2023-03-01T09:08:41;4.70;;;1.67;;
75766;SDS011;64378;55.596;13.014;2023-03-01T09:11:10;6.75;;;1.90;;
75766;SDS011;64378;55.596;13.014;2023-03-01T09:13:36;6.00;;;1.85;;
75766;SDS011;64378;55.596;13.014;2023-03-01T09:16:03;7.63;;;1.90;;
75766;SDS011;64378;55.596;13.014;2023-03-01T09:18:30;5.47;;;1.55;;
75766;SDS011;64378;55.596;13.014;2023-03-01T09:21:03;5.35;;;1.80;;
75766;SDS011;64378;55.596;13.014;2023-03-01T09:23:37;6.43;;;1.80;;
75766;SDS011;64378;55.596;13.014;2023-03-01T09:26:05;6.43;;;1.85;;
75766;SDS011;64378;55.596;13.014;2023-03-01T09:28:33;5.50;;;2.10;;
75766;SDS011;64378;55.596;13.014;2023-03-01T09:30:59;7.07;;;2.00;;
75766;SDS011;64378;55.596;13.014;2023-03-01T09:33:25;5.00;;;1.60;;
75766;SDS011;64378;55.596;13.014;2023-03-01T09:36:01;6.07;;;1.75;;
75766;SDS011;64378;55.596;13.014;2023-03-01T09:38:28;4.75;;;1.58;;
75766;SDS011;64378;55.596;13.014;2023-03-01T09:40:55;5.55;;;1.70;;
75766;SDS011;64378;55.596;13.014;2023-03-01T09:46:11;5.50;;;1.70;;
75766;SDS011;64378;55.596;13.014;2023-03-01T09:48:46;5.70;;;2.00;;
75766;SDS011;64378;55.596;13.014;2023-03-01T09:54:20;4.63;;;1.50;;
75766;SDS011;64378;55.596;13.014;2023-03-01T09:56:46;4.50;;;1.50;;
75766;SDS011;64378;55.596;13.014;2023-03-01T10:04:46;5.18;;;1.80;;
75766;SDS011;64378;55.596;13.014;2023-03-01T10:07:58;3.88;;;1.40;;
75766;SDS011;64378;55.596;13.014;2023-03-01T10:10:04;5.43;;;1.70;;
75766;SDS011;64378;55.596;13.014;2023-03-01T10:12:35;4.03;;;1.50;;
75766;SDS011;64378;55.596;13.014;2023-03-01T10:20:15;4.43;;;1.40;;
75766;SDS011;64378;55.596;13.014;2023-03-01T10:22:44;3.90;;;1.47;;
75766;SDS011;64378;55.596;13.014;2023-03-01T10:25:15;3.60;;;1.37;;
75766;SDS011;64378;55.596;13.014;2023-03-01T10:32:57;3.85;;;1.50;;
75766;SDS011;64378;55.596;13.014;2023-03-01T10:35:24;5.73;;;1.33;;
75766;SDS011;64378;55.596;13.014;2023-03-01T10:38:10;3.58;;;1.33;;
75766;SDS011;64378;55.596;13.014;2023-03-01T10:40:58;3.90;;;1.50;;
75766;SDS011;64378;55.596;13.014;2023-03-01T10:43:40;3.90;;;1.58;;
75766;SDS011;64378;55.596;13.014;2023-03-01T10:51:30;4.43;;;1.35;;
75766;SDS011;64378;55.596;13.014;2023-03-01T10:53:55;3.80;;;1.37;;
75766;SDS011;64378;55.596;13.014;2023-03-01T10:56:20;3.30;;;1.10;;
75766;SDS011;64378;55.596;13.014;2023-03-01T10:58:59;5.18;;;1.27;;
75766;SDS011;64378;55.596;13.014;2023-03-01T11:01:27;3.45;;;1.27;;
75766;SDS011;64378;55.596;13.014;2023-03-01T11:06:32;3.42;;;1.10;;
75766;SDS011;64378;55.596;13.014;2023-03-01T11:09:12;3.35;;;1.30;;
75766;SDS011;64378;55.596;13.014;2023-03-01T11:11:40;3.47;;;1.13;;
75766;SDS011;64378;55.596;13.014;2023-03-01T11:14:07;3.13;;;1.17;;
75766;SDS011;64378;55.596;13.014;2023-03-01T11:16:42;3.60;;;1.25;;
75766;SDS011;64378;55.596;13.014;2023-03-01T11:21:47;3.97;;;1.40;;
75766;SDS011;64378;55.596;13.014;2023-03-01T11:24:15;3.17;;;1.23;;
75766;SDS011;64378;55.596;13.014;2023-03-01T11:26:44;3.63;;;1.20;;
75766;SDS011;64378;55.596;13.014;2023-03-01T11:32:02;4.32;;;1.30;;
75766;SDS011;64378;55.596;13.014;2023-03-01T11:34:36;4.30;;;1.48;;
75766;SDS011;64378;55.596;13.014;2023-03-01T11:37:14;3.85;;;1.23;;
75766;SDS011;64378;55.596;13.014;2023-03-01T11:39:56;3.65;;;1.38;;
75766;SDS011;64378;55.596;13.014;2023-03-01T11:42:38;4.47;;;1.20;;
75766;SDS011;64378;55.596;13.014;2023-03-01T11:45:11;3.38;;;1.30;;
75766;SDS011;64378;55.596;13.014;2023-03-01T11:52:46;4.03;;;1.30;;
75766;SDS011;64378;55.596;13.014;2023-03-01T12:48:28;3.05;;;1.00;;
75766;SDS011;64378;55.596;13.014;2023-03-01T12:51:14;2.55;;;0.90;;
75766;SDS011;64378;55.596;13.014;2023-03-01T12:53:47;2.38;;;1.00;;
75766;SDS011;64378;55.596;13.014;2023-03-01T12:56:19;2.20;;;0.90;;
75766;SDS011;64378;55.596;13.014;2023-03-01T12:59:03;2.38;;;0.90;;
75766;SDS011;64378;55.596;13.014;2023-03-01T13:10:23;2.63;;;0.90;;
75766;SDS011;64378;55.596;13.014;2023-03-01T13:17:52;2.85;;;0.90;;
75766;SDS011;64378;55.596;13.014;2023-03-01T13:20:19;2.08;;;0.80;;
75766;SDS011;64378;55.596;13.014;2023-03-01T13:23:03;2.25;;;0.75;;
75766;SDS011;64378;55.596;13.014;2023-03-01T13:30:57;2.80;;;0.90;;
75766;SDS011;64378;55.596;13.014;2023-03-01T13:35:48;2.53;;;0.80;;
75766;SDS011;64378;55.596;13.014;2023-03-01T13:41:10;3.78;;;0.98;;
75766;SDS011;64378;55.596;13.014;2023-03-01T13:43:38;2.90;;;0.83;;
75766;SDS011;64378;55.596;13.014;2023-03-01T13:46:17;2.83;;;0.90;;
75766;SDS011;64378;55.596;13.014;2023-03-01T13:48:47;2.42;;;0.77;;
75766;SDS011;64378;55.596;13.014;2023-03-01T13:51:16;2.65;;;0.90;;
75766;SDS011;64378;55.596;13.014;2023-03-01T13:53:48;2.75;;;0.90;;
75766;SDS011;64378;55.596;13.014;2023-03-01T13:56:15;3.30;;;0.98;;
75766;SDS011;64378;55.596;13.014;2023-03-01T13:58:53;2.30;;;0.80;;
75766;SDS011;64378;55.596;13.014;2023-03-01T14:01:25;3.47;;;0.80;;
75766;SDS011;64378;55.596;13.014;2023-03-01T14:03:50;2.67;;;0.88;;
75766;SDS011;64378;55.596;13.014;2023-03-01T14:06:18;1.90;;;0.70;;
75766;SDS011;64378;55.596;13.014;2023-03-01T14:08:46;1.90;;;0.70;;
75766;SDS011;64378;55.596;13.014;2023-03-01T14:11:28;2.15;;;0.80;;
75766;SDS011;64378;55.596;13.014;2023-03-01T14:19:28;2.40;;;0.90;;
75766;SDS011;64378;55.596;13.014;2023-03-01T14:22:04;2.80;;;0.80;;
75766;SDS011;64378;55.596;13.014;2023-03-01T14:24:46;2.65;;;0.90;;
75766;SDS011;64378;55.596;13.014;2023-03-01T14:27:14;2.65;;;0.75;;
75766;SDS011;64378;55.596;13.014;2023-03-01T14:29:40;2.10;;;0.80;;
75766;SDS011;64378;55.596;13.014;2023-03-01T14:32:25;2.50;;;0.80;;
75766;SDS011;64378;55.596;13.014;2023-03-01T14:34:53;3.40;;;0.73;;
75766;SDS011;64378;55.596;13.014;2023-03-01T14:37:20;1.93;;;0.60;;
75766;SDS011;64378;55.596;13.014;2023-03-01T14:39:54;1.50;;;0.63;;
75766;SDS011;64378;55.596;13.014;2023-03-01T14:42:22;1.60;;;0.60;;
75766;SDS011;64378;55.596;13.014;2023-03-01T14:44:50;2.25;;;0.73;;
75766;SDS011;64378;55.596;13.014;2023-03-01T14:47:28;1.92;;;0.60;;
75766;SDS011;64378;55.596;13.014;2023-03-01T14:50:00;2.65;;;0.68;;
75766;SDS011;64378;55.596;13.014;2023-03-01T14:52:35;3.17;;;0.70;;
75766;SDS011;64378;55.596;13.014;2023-03-01T14:55:07;2.17;;;0.70;;
75766;SDS011;64378;55.596;13.014;2023-03-01T14:57:44;1.95;;;0.70;;
75766;SDS011;64378;55.596;13.014;2023-03-01T15:00:13;2.25;;;0.65;;
75766;SDS011;64378;55.596;13.014;2023-03-01T15:02:53;2.25;;;0.77;;
75766;SDS011;64378;55.596;13.014;2023-03-01T15:05:28;2.40;;;0.60;;
75766;SDS011;64378;55.596;13.014;2023-03-01T15:07:57;2.00;;;0.70;;
75766;SDS011;64378;55.596;13.014;2023-03-01T15:10:25;1.90;;;0.70;;
75766;SDS011;64378;55.596;13.014;2023-03-01T15:12:53;2.80;;;0.80;;
75766;SDS011;64378;55.596;13.014;2023-03-01T15:16:04;1.70;;;0.70;;
75766;SDS011;64378;55.596;13.014;2023-03-01T15:20:40;1.65;;;0.60;;
75766;SDS011;64378;55.596;13.014;2023-03-01T15:23:06;2.10;;;0.63;;
75766;SDS011;64378;55.596;13.014;2023-03-01T15:25:47;1.77;;;0.70;;
75766;SDS011;64378;55.596;13.014;2023-03-01T15:28:21;2.30;;;0.60;;
75766;SDS011;64378;55.596;13.014;2023-03-01T15:31:00;1.70;;;0.57;;
75766;SDS011;64378;55.596;13.014;2023-03-01T15:33:32;1.80;;;0.60;;
75766;SDS011;64378;55.596;13.014;2023-03-01T15:35:59;1.80;;;0.70;;
75766;SDS011;64378;55.596;13.014;2023-03-01T15:38:52;2.00;;;0.50;;
75766;SDS011;64378;55.596;13.014;2023-03-01T15:41:24;1.77;;;0.60;;
75766;SDS011;64378;55.596;13.014;2023-03-01T15:43:51;1.98;;;0.60;;
75766;SDS011;64378;55.596;13.014;2023-03-01T15:46:33;1.70;;;0.60;;
75766;SDS011;64378;55.596;13.014;2023-03-01T15:49:17;1.98;;;0.52;;
75766;SDS011;64378;55.596;13.014;2023-03-01T15:51:45;1.42;;;0.50;;
75766;SDS011;64378;55.596;13.014;2023-03-01T15:54:17;1.53;;;0.60;;
75766;SDS011;64378;55.596;13.014;2023-03-01T15:56:45;2.08;;;0.57;;
75766;SDS011;64378;55.596;13.014;2023-03-01T15:59:10;2.60;;;0.50;;
75766;SDS011;64378;55.596;13.014;2023-03-01T16:01:38;1.83;;;0.65;;
75766;SDS011;64378;55.596;13.014;2023-03-01T16:04:03;1.50;;;0.50;;
75766;SDS011;64378;55.596;13.014;2023-03-01T16:06:29;2.03;;;0.50;;
75766;SDS011;64378;55.596;13.014;2023-03-01T16:08:54;3.13;;;0.60;;
75766;SDS011;64378;55.596;13.014;2023-03-01T16:11:20;2.13;;;0.57;;
75766;SDS011;64378;55.596;13.014;2023-03-01T16:13:46;1.63;;;0.60;;
75766;SDS011;64378;55.596;13.014;2023-03-01T16:16:12;2.05;;;0.57;;
75766;SDS011;64378;55.596;13.014;2023-03-01T16:18:41;2.78;;;0.60;;
75766;SDS011;64378;55.596;13.014;2023-03-01T16:21:10;1.92;;;0.50;;
75766;SDS011;64378;55.596;13.014;2023-03-01T16:23:38;1.33;;;0.50;;
75766;SDS011;64378;55.596;13.014;2023-03-01T16:26:03;1.73;;;0.50;;
75766;SDS011;64378;55.596;13.014;2023-03-01T16:28:29;1.67;;;0.50;;
75766;SDS011;64378;55.596;13.014;2023-03-01T16:30:54;1.83;;;0.60;;
75766;SDS011;64378;55.596;13.014;2023-03-01T16:33:19;1.50;;;0.50;;
75766;SDS011;64378;55.596;13.014;2023-03-01T16:35:45;4.63;;;0.70;;
75766;SDS011;64378;55.596;13.014;2023-03-01T16:38:10;1.10;;;0.50;;
75766;SDS011;64378;55.596;13.014;2023-03-01T16:40:36;2.10;;;0.50;;
75766;SDS011;64378;55.596;13.014;2023-03-01T16:43:02;1.97;;;0.50;;
75766;SDS011;64378;55.596;13.014;2023-03-01T16:45:28;2.10;;;0.60;;
75766;SDS011;64378;55.596;13.014;2023-03-01T16:48:00;2.35;;;0.60;;
75766;SDS011;64378;55.596;13.014;2023-03-01T16:50:25;1.10;;;0.40;;
75766;SDS011;64378;55.596;13.014;2023-03-01T16:52:51;1.67;;;0.40;;
75766;SDS011;64378;55.596;13.014;2023-03-01T16:55:16;2.73;;;0.50;;
75766;SDS011;64378;55.596;13.014;2023-03-01T16:57:42;2.05;;;0.60;;
75766;SDS011;64378;55.596;13.014;2023-03-01T17:00:08;1.73;;;0.50;;